createdAt,value
2018-09-15T00:00:49.804Z,20.3
2018-09-15T00:02:49.816Z,20.3
2018-09-15T00:04:50.233Z,21.2
2018-09-15T00:06:49.551Z,21.0
2018-09-15T00:08:49.649Z,20.8
2018-09-15T00:10:49.701Z,20.8
2018-09-15T00:12:49.766Z,20.8
2018-09-15T00:14:49.834Z,20.8
2018-09-15T00:16:50.132Z,22.0
2018-09-15T00:18:50.293Z,20.6
2018-09-15T00:20:50.384Z,20.6
2018-09-15T00:22:49.605Z,20.6
2018-09-15T00:24:49.733Z,21.9
2018-09-15T00:26:49.952Z,21.4
2018-09-15T00:28:50.023Z,21.5
2018-09-15T00:30:49.968Z,21.5
2018-09-15T00:32:49.948Z,21.5
2018-09-15T00:34:50.314Z,21.7
2018-09-15T00:36:49.516Z,21.7
2018-09-15T00:38:49.636Z,21.8
2018-09-15T00:40:50.009Z,21.8
2018-09-15T00:42:50.074Z,21.9
2018-09-15T00:44:50.115Z,20.8
2018-09-15T00:46:50.284Z,21.8
2018-09-15T00:48:50.357Z,22.6
2018-09-15T00:50:50.342Z,23.9
2018-09-15T00:52:49.535Z,23.9
2018-09-15T00:54:49.570Z,23.9
2018-09-15T00:56:49.795Z,24.7
2018-09-15T00:58:49.854Z,24.7
2018-09-15T01:00:49.820Z,25.4
2018-09-15T01:02:49.821Z,25.4
2018-09-15T01:04:50.213Z,25.5
2018-09-15T01:06:49.502Z,23.9
2018-09-15T01:08:49.548Z,27.0
2018-09-15T01:10:49.685Z,20.3
2018-09-15T01:12:49.717Z,20.3
2018-09-15T01:14:49.819Z,19.2
2018-09-15T01:16:50.068Z,19.5
2018-09-15T01:18:50.074Z,19.3
2018-09-15T01:20:50.110Z,20.4
2018-09-15T01:22:50.084Z,20.4
2018-09-15T01:24:50.196Z,19.7
2018-09-15T01:26:49.489Z,19.7
2018-09-15T01:28:49.514Z,20.1
2018-09-15T01:30:49.573Z,20.1
2018-09-15T01:32:49.685Z,20.0
2018-09-15T01:34:49.968Z,20.1
2018-09-15T01:36:50.077Z,21.4
2018-09-15T01:38:50.075Z,19.7
2018-09-15T01:40:50.198Z,19.7
2018-09-15T01:42:50.263Z,21.0
2018-09-15T01:44:50.344Z,22.0
2018-09-15T01:46:49.608Z,22.0
2018-09-15T01:48:49.689Z,21.6
2018-09-15T01:50:49.720Z,21.0
2018-09-15T01:52:49.659Z,21.3
2018-09-15T01:54:49.653Z,21.2
2018-09-15T01:56:49.788Z,21.2
2018-09-15T01:58:49.745Z,21.9
2018-09-15T02:00:49.794Z,21.0
2018-09-15T02:02:49.864Z,20.3
2018-09-15T02:04:50.222Z,20.7
2018-09-15T02:06:49.617Z,20.7
2018-09-15T02:08:49.655Z,20.7
2018-09-15T02:10:49.632Z,21.4
2018-09-15T02:12:49.676Z,21.3
2018-09-15T02:14:49.754Z,22.2
2018-09-15T02:16:49.903Z,22.2
2018-09-15T02:18:49.968Z,22.2
2018-09-15T02:20:50.023Z,21.6
2018-09-15T02:22:50.073Z,21.6
2018-09-15T02:24:50.308Z,21.1
2018-09-15T02:26:49.592Z,21.5
2018-09-15T02:28:49.593Z,21.5
2018-09-15T02:30:49.906Z,22.0
2018-09-15T02:32:49.936Z,21.6
2018-09-15T02:34:50.362Z,23.7
2018-09-15T02:36:49.606Z,23.2
2018-09-15T02:38:49.712Z,23.2
2018-09-15T02:40:49.837Z,22.0
2018-09-15T02:42:49.875Z,22.9
2018-09-15T02:44:49.912Z,22.0
2018-09-15T02:46:50.219Z,22.0
2018-09-15T02:48:50.152Z,24.1
2018-09-15T02:50:50.240Z,21.8
2018-09-15T02:52:50.176Z,23.0
2018-09-15T02:54:50.167Z,23.4
2018-09-15T02:56:49.916Z,23.4
2018-09-15T02:58:49.911Z,23.6
2018-09-15T03:00:49.964Z,23.6
2018-09-15T03:02:49.955Z,23.3
2018-09-15T03:04:50.363Z,25.4
2018-09-15T03:06:49.653Z,25.4
2018-09-15T03:08:49.653Z,23.0
2018-09-15T03:10:49.775Z,22.6
2018-09-15T03:12:50.244Z,22.7
2018-09-15T03:14:50.263Z,22.9
2018-09-15T03:16:49.516Z,22.9
2018-09-15T03:18:49.596Z,21.5
2018-09-15T03:20:49.686Z,22.5
2018-09-15T03:22:49.672Z,21.0
2018-09-15T03:24:49.790Z,21.0
2018-09-15T03:26:49.973Z,21.7
2018-09-15T03:28:50.017Z,21.7
2018-09-15T03:30:50.023Z,22.1
2018-09-15T03:32:50.049Z,22.1
2018-09-15T03:34:49.447Z,21.9
2018-09-15T03:36:49.847Z,22.1
2018-09-15T03:38:49.841Z,21.6
2018-09-15T03:40:49.957Z,21.6
2018-09-15T03:42:50.012Z,21.6
2018-09-15T03:44:50.142Z,21.6
2018-09-15T03:46:50.405Z,23.7
2018-09-15T03:48:50.404Z,21.5
2018-09-15T03:50:49.497Z,22.0
2018-09-15T03:52:49.571Z,21.6
2018-09-15T03:54:49.695Z,21.8
2018-09-15T03:56:49.945Z,21.8
2018-09-15T03:58:49.925Z,22.1
2018-09-15T04:00:50.027Z,21.3
2018-09-15T04:02:50.006Z,21.8
2018-09-15T04:04:50.192Z,21.8
2018-09-15T04:06:49.520Z,20.4
2018-09-15T04:08:49.673Z,20.4
2018-09-15T04:10:49.678Z,23.8
2018-09-15T04:12:49.665Z,23.2
2018-09-15T04:14:49.733Z,23.2
2018-09-15T04:16:50.110Z,22.3
2018-09-15T04:18:50.168Z,23.0
2018-09-15T04:20:50.247Z,23.3
2018-09-15T04:22:50.323Z,23.3
2018-09-15T04:24:50.331Z,27.0
2018-09-15T04:26:50.120Z,27.0
2018-09-15T04:28:50.147Z,27.7
2018-09-15T04:30:50.226Z,28.8
2018-09-15T04:32:50.329Z,28.8
2018-09-15T04:34:49.697Z,30.8
2018-09-15T04:36:49.865Z,32.5
2018-09-15T04:38:49.948Z,34.3
2018-09-15T04:40:50.057Z,34.3
2018-09-15T04:42:50.064Z,37.9
2018-09-15T04:44:50.066Z,34.0
2018-09-15T04:46:50.339Z,36.1
2018-09-15T04:48:50.353Z,35.5
2018-09-15T04:50:50.387Z,35.5
2018-09-15T04:52:49.522Z,37.8
2018-09-15T04:54:50.152Z,37.8
2018-09-15T04:56:49.459Z,31.9
2018-09-15T04:58:49.606Z,31.9
2018-09-15T05:00:50.391Z,29.7
2018-09-15T05:02:50.337Z,29.7
2018-09-15T05:04:49.782Z,29.3
2018-09-15T05:06:50.012Z,25.6
2018-09-15T05:08:50.064Z,25.6
2018-09-15T05:10:50.050Z,22.6
2018-09-15T05:12:50.104Z,22.6
2018-09-15T05:14:49.613Z,22.5
2018-09-15T05:16:49.942Z,22.4
2018-09-15T05:18:49.910Z,20.2
2018-09-15T05:20:49.911Z,21.5
2018-09-15T05:22:49.923Z,21.5
2018-09-15T05:24:49.876Z,19.1
2018-09-15T05:26:50.093Z,18.7
2018-09-15T05:28:50.119Z,18.7
2018-09-15T05:30:50.114Z,19.0
2018-09-15T05:32:50.188Z,19.0
2018-09-15T05:34:49.601Z,16.7
2018-09-15T05:36:50.413Z,16.7
2018-09-15T05:38:50.374Z,16.8
2018-09-15T05:40:50.470Z,16.8
2018-09-15T05:42:49.452Z,16.6
2018-09-15T05:44:49.535Z,16.1
2018-09-15T05:46:49.735Z,15.9
2018-09-15T05:48:49.743Z,14.8
2018-09-15T05:50:49.826Z,14.8
2018-09-15T05:52:49.897Z,14.4
2018-09-15T05:54:49.932Z,15.6
2018-09-15T05:56:50.022Z,14.2
2018-09-15T05:58:50.013Z,14.2
2018-09-15T06:00:50.001Z,14.2
2018-09-15T06:02:50.050Z,14.2
2018-09-15T06:04:49.522Z,16.0
2018-09-15T06:06:49.804Z,15.0
2018-09-15T06:08:50.336Z,15.0
2018-09-15T06:10:50.323Z,13.8
2018-09-15T06:12:49.508Z,13.4
2018-09-15T06:14:49.582Z,13.4
2018-09-15T06:16:49.836Z,13.0
2018-09-15T06:18:49.912Z,13.0
2018-09-15T06:20:50.049Z,12.5
2018-09-15T06:22:50.059Z,12.2
2018-09-15T06:24:50.094Z,12.2
2018-09-15T06:26:50.403Z,12.2
2018-09-15T06:28:50.354Z,12.5
2018-09-15T06:30:50.446Z,13.4
2018-09-15T06:32:49.685Z,12.0
2018-09-15T06:34:50.048Z,12.0
2018-09-15T06:36:50.250Z,11.9
2018-09-15T06:38:50.358Z,11.9
2018-09-15T06:40:50.315Z,16.0
2018-09-15T06:42:49.541Z,12.5
2018-09-15T06:44:49.534Z,12.5
2018-09-15T06:46:49.654Z,12.1
2018-09-15T06:48:49.684Z,11.8
2018-09-15T06:50:49.622Z,12.6
2018-09-15T06:52:49.713Z,12.2
2018-09-15T06:54:49.691Z,12.2
2018-09-15T06:56:49.894Z,13.4
2018-09-15T06:58:49.950Z,13.4
2018-09-15T07:00:50.032Z,13.8
2018-09-15T07:02:50.415Z,13.4
2018-09-15T07:04:49.724Z,12.9
2018-09-15T07:06:50.075Z,12.9
2018-09-15T07:08:50.261Z,14.2
2018-09-15T07:10:50.283Z,12.9
2018-09-15T07:12:50.318Z,12.9
2018-09-15T07:14:49.656Z,13.2
2018-09-15T07:16:49.980Z,13.4
2018-09-15T07:18:49.980Z,11.9
2018-09-15T07:20:50.061Z,12.5
2018-09-15T07:22:50.210Z,12.5
2018-09-15T07:24:50.159Z,13.5
2018-09-15T07:26:49.545Z,13.5
2018-09-15T07:28:49.608Z,10.9
2018-09-15T07:30:49.660Z,11.8
2018-09-15T07:32:49.831Z,11.9
2018-09-15T07:34:50.169Z,11.9
2018-09-15T07:36:49.848Z,13.8
2018-09-15T07:38:49.788Z,11.8
2018-09-15T07:40:49.816Z,11.7
2018-09-15T07:42:49.851Z,13.6
2018-09-15T07:44:49.994Z,13.6
2018-09-15T07:46:49.932Z,11.1
2018-09-15T07:48:49.938Z,11.1
2018-09-15T07:50:49.994Z,10.3
2018-09-15T07:52:50.088Z,9.3
2018-09-15T07:54:50.140Z,9.3
2018-09-15T07:56:50.347Z,9.0
2018-09-15T07:58:49.475Z,10.3
2018-09-15T08:00:49.577Z,8.3
2018-09-15T08:02:49.620Z,8.3
2018-09-15T08:04:50.222Z,9.0
2018-09-15T08:06:50.427Z,9.8
2018-09-15T08:08:50.364Z,8.4
2018-09-15T08:10:50.474Z,8.4
2018-09-15T08:12:49.656Z,8.7
2018-09-15T08:14:49.757Z,8.7
2018-09-15T08:16:49.911Z,8.7
2018-09-15T08:18:49.942Z,6.9
2018-09-15T08:20:50.024Z,6.9
2018-09-15T08:22:49.699Z,6.9
2018-09-15T08:24:49.729Z,6.9
2018-09-15T08:26:49.856Z,8.4
2018-09-15T08:28:49.914Z,6.0
2018-09-15T08:30:50.049Z,6.0
2018-09-15T08:32:50.109Z,6.8
2018-09-15T08:34:49.566Z,6.9
2018-09-15T08:36:49.786Z,9.9
2018-09-15T08:38:49.832Z,6.1
2018-09-15T08:40:49.885Z,6.1
2018-09-15T08:42:49.903Z,5.6
2018-09-15T08:44:49.903Z,5.1
2018-09-15T08:46:50.080Z,4.6
2018-09-15T08:48:50.115Z,4.6
2018-09-15T08:50:50.259Z,4.7
2018-09-15T08:52:50.180Z,3.7
2018-09-15T08:54:50.239Z,3.7
2018-09-15T08:56:50.409Z,9.5
2018-09-15T08:58:49.552Z,14.1
2018-09-15T09:00:49.576Z,4.8
2018-09-15T09:02:49.603Z,4.8
2018-09-15T09:04:50.123Z,11.7
2018-09-15T09:06:50.376Z,4.2
2018-09-15T09:08:50.297Z,4.2
2018-09-15T09:10:50.354Z,7.6
2018-09-15T09:12:49.545Z,7.6
2018-09-15T09:14:49.488Z,4.4
2018-09-15T09:16:49.706Z,6.2
2018-09-15T09:18:49.747Z,6.2
2018-09-15T09:20:49.755Z,5.8
2018-09-15T09:22:49.775Z,5.8
2018-09-15T09:24:49.772Z,4.9
2018-09-15T09:26:50.172Z,5.6
2018-09-15T09:28:49.851Z,4.8
2018-09-15T09:30:49.888Z,4.8
2018-09-15T09:32:49.969Z,5.2
2018-09-15T09:34:50.316Z,6.7
2018-09-15T09:36:49.792Z,7.0
2018-09-15T09:38:49.861Z,3.9
2018-09-15T09:40:49.881Z,3.9
2018-09-15T09:42:49.906Z,7.1
2018-09-15T09:44:49.937Z,3.6
2018-09-15T09:46:50.132Z,4.5
2018-09-15T09:48:50.134Z,4.5
2018-09-15T09:50:50.142Z,4.6
2018-09-15T09:52:50.121Z,4.0
2018-09-15T09:54:50.144Z,3.2
2018-09-15T09:56:50.255Z,3.3
2018-09-15T09:58:50.435Z,3.3
2018-09-15T10:00:49.467Z,4.2
2018-09-15T10:02:49.486Z,3.5
2018-09-15T10:04:49.917Z,5.1
2018-09-15T10:06:50.045Z,4.2
2018-09-15T10:08:50.120Z,4.2
2018-09-15T10:10:50.098Z,3.6
2018-09-15T10:12:50.395Z,7.1
2018-09-15T10:14:50.422Z,4.8
2018-09-15T10:16:49.732Z,4.8
2018-09-15T10:18:49.778Z,5.3
2018-09-15T10:20:49.782Z,6.4
2018-09-15T10:22:49.697Z,6.8
2018-09-15T10:24:49.725Z,6.8
2018-09-15T10:26:49.937Z,5.4
2018-09-15T10:28:49.888Z,5.4
2018-09-15T10:30:49.924Z,6.0
2018-09-15T10:32:49.973Z,3.4
2018-09-15T10:34:50.398Z,4.5
2018-09-15T10:36:49.657Z,3.5
2018-09-15T10:38:49.625Z,3.5
2018-09-15T10:40:49.699Z,4.6
2018-09-15T10:42:49.713Z,4.8
2018-09-15T10:44:49.728Z,4.8
2018-09-15T10:46:49.871Z,5.0
2018-09-15T10:48:49.881Z,5.0
2018-09-15T10:50:49.903Z,4.0
2018-09-15T10:52:49.968Z,6.5
2018-09-15T10:54:50.184Z,3.8
2018-09-15T10:56:50.413Z,4.1
2018-09-15T10:58:49.441Z,4.1
2018-09-15T11:00:49.721Z,4.7
2018-09-15T11:02:49.578Z,4.9
2018-09-15T11:04:49.982Z,3.2
2018-09-15T11:06:50.323Z,3.2
2018-09-15T11:08:49.443Z,5.5
2018-09-15T11:10:49.494Z,4.9
2018-09-15T11:12:49.617Z,4.9
2018-09-15T11:14:49.673Z,4.9
2018-09-15T11:16:49.912Z,6.0
2018-09-15T11:18:49.920Z,4.8
2018-09-15T11:20:50.071Z,5.4
2018-09-15T11:22:50.170Z,3.5
2018-09-15T11:24:49.733Z,4.2
2018-09-15T11:26:49.975Z,4.2
2018-09-15T11:28:49.999Z,3.3
2018-09-15T11:30:50.288Z,6.1
2018-09-15T11:32:49.466Z,6.1
2018-09-15T11:34:49.942Z,5.1
2018-09-15T11:36:50.189Z,5.1
2018-09-15T11:38:50.261Z,4.4
2018-09-15T11:40:50.198Z,3.3
2018-09-15T11:42:50.256Z,3.7
2018-09-15T11:44:50.239Z,4.6
2018-09-15T11:46:49.452Z,4.6
2018-09-15T11:48:49.479Z,3.3
2018-09-15T11:50:49.559Z,4.3
2018-09-15T11:52:49.711Z,3.4
2018-09-15T11:54:49.677Z,3.4
2018-09-15T11:56:49.808Z,5.3
2018-09-15T11:58:49.832Z,4.4
2018-09-15T12:00:49.865Z,4.4
2018-09-15T12:02:49.948Z,5.6
2018-09-15T12:04:50.193Z,5.6
2018-09-15T12:06:50.304Z,5.1
2018-09-15T12:08:49.499Z,4.8
2018-09-15T12:10:49.541Z,5.0
2018-09-15T12:12:49.651Z,5.0
2018-09-15T12:14:49.751Z,5.0
2018-09-15T12:16:49.957Z,5.2
2018-09-15T12:18:49.996Z,4.5
2018-09-15T12:20:50.008Z,4.1
2018-09-15T12:22:50.042Z,4.1
2018-09-15T12:24:50.088Z,4.6
2018-09-15T12:26:50.253Z,4.6
2018-09-15T12:28:50.260Z,3.1
2018-09-15T12:30:50.420Z,3.1
2018-09-15T12:32:49.553Z,5.2
2018-09-15T12:34:50.041Z,4.6
2018-09-15T12:36:50.239Z,4.0
2018-09-15T12:38:50.340Z,4.1
2018-09-15T12:40:50.321Z,4.1
2018-09-15T12:42:49.486Z,5.0
2018-09-15T12:44:49.466Z,4.9
2018-09-15T12:46:49.673Z,4.9
2018-09-15T12:48:49.669Z,3.4
2018-09-15T12:50:49.853Z,3.5
2018-09-15T12:52:49.892Z,3.1
2018-09-15T12:54:49.887Z,3.1
2018-09-15T12:56:50.044Z,3.1
2018-09-15T12:58:50.148Z,2.9
2018-09-15T13:00:50.193Z,4.5
2018-09-15T13:02:50.170Z,4.5
2018-09-15T13:04:49.590Z,3.1
2018-09-15T13:06:49.781Z,3.1
2018-09-15T13:08:49.873Z,3.0
2018-09-15T13:10:49.891Z,3.0
2018-09-15T13:12:49.929Z,4.1
2018-09-15T13:14:49.907Z,3.5
2018-09-15T13:16:50.218Z,4.2
2018-09-15T13:18:50.176Z,4.1
2018-09-15T13:20:50.147Z,4.1
2018-09-15T13:22:50.289Z,3.6
2018-09-15T13:24:50.246Z,3.6
2018-09-15T13:26:49.474Z,3.8
2018-09-15T13:28:49.623Z,4.2
2018-09-15T13:30:49.660Z,4.2
2018-09-15T13:32:49.629Z,4.8
2018-09-15T13:34:50.141Z,10.6
2018-09-15T13:36:50.427Z,2.7
2018-09-15T13:38:50.424Z,2.7
2018-09-15T13:40:50.450Z,3.4
2018-09-15T13:42:49.561Z,2.5
2018-09-15T13:44:49.616Z,3.5
2018-09-15T13:46:49.941Z,6.3
2018-09-15T13:48:50.269Z,6.3
2018-09-15T13:50:50.313Z,4.3
2018-09-15T13:52:50.284Z,6.4
2018-09-15T13:54:50.287Z,3.1
2018-09-15T13:56:49.577Z,3.1
2018-09-15T13:58:49.613Z,6.7
2018-09-15T14:00:50.190Z,6.7
2018-09-15T14:02:50.146Z,3.4
2018-09-15T14:04:49.760Z,3.5
2018-09-15T14:06:49.619Z,3.5
2018-09-15T14:08:50.013Z,3.0
2018-09-15T14:10:50.226Z,3.0
2018-09-15T14:12:49.576Z,3.8
2018-09-15T14:14:49.692Z,5.2
2018-09-15T14:16:49.859Z,5.2
2018-09-15T14:18:49.973Z,3.4
2018-09-15T14:20:50.027Z,2.9
2018-09-15T14:22:50.053Z,3.6
2018-09-15T14:24:50.132Z,3.8
2018-09-15T14:26:50.251Z,4.2
2018-09-15T14:28:50.298Z,4.2
2018-09-15T14:30:50.305Z,5.4
2018-09-15T14:32:50.435Z,4.4
2018-09-15T14:34:50.046Z,3.8
2018-09-15T14:36:49.490Z,3.8
2018-09-15T14:38:49.749Z,3.2
2018-09-15T14:40:50.107Z,3.8
2018-09-15T14:42:50.088Z,3.2
2018-09-15T14:44:50.030Z,3.5
2018-09-15T14:46:50.180Z,3.5
2018-09-15T14:48:50.207Z,3.0
2018-09-15T14:50:50.192Z,4.2
2018-09-15T14:52:50.142Z,4.3
2018-09-15T14:54:50.100Z,2.9
2018-09-15T14:56:50.264Z,2.9
2018-09-15T14:58:50.287Z,3.0
2018-09-15T15:00:50.405Z,2.6
2018-09-15T15:02:50.052Z,2.6
2018-09-15T15:04:49.525Z,2.6
2018-09-15T15:06:49.912Z,5.1
2018-09-15T15:08:50.047Z,3.5
2018-09-15T15:10:50.018Z,4.1
2018-09-15T15:12:50.024Z,3.3
2018-09-15T15:14:50.042Z,3.3
2018-09-15T15:16:50.295Z,2.9
2018-09-15T15:18:50.291Z,4.2
2018-09-15T15:20:50.399Z,2.9
2018-09-15T15:22:49.553Z,2.9
2018-09-15T15:24:49.696Z,2.3
2018-09-15T15:26:49.917Z,3.2
2018-09-15T15:28:49.964Z,2.8
2018-09-15T15:30:50.055Z,3.2
2018-09-15T15:32:50.194Z,3.2
2018-09-15T15:34:49.573Z,3.2
2018-09-15T15:36:49.898Z,3.2
2018-09-15T15:38:49.987Z,3.6
2018-09-15T15:40:50.181Z,3.9
2018-09-15T15:42:50.290Z,3.2
2018-09-15T15:44:50.341Z,3.2
2018-09-15T15:46:49.574Z,4.1
2018-09-15T15:48:49.525Z,5.3
2018-09-15T15:50:49.766Z,5.3
2018-09-15T15:52:49.810Z,4.3
2018-09-15T15:54:49.787Z,4.3
2018-09-15T15:56:49.914Z,5.1
2018-09-15T15:58:50.406Z,4.2
2018-09-15T16:00:49.873Z,4.2
2018-09-15T16:02:49.904Z,6.5
2018-09-15T16:04:50.157Z,3.7
2018-09-15T16:06:49.450Z,2.7
2018-09-15T16:08:49.516Z,2.4
2018-09-15T16:10:49.587Z,2.4
2018-09-15T16:12:49.655Z,3.1
2018-09-15T16:14:49.677Z,2.6
2018-09-15T16:16:49.903Z,4.9
2018-09-15T16:18:49.974Z,3.5
2018-09-15T16:20:50.003Z,4.5
2018-09-15T16:22:50.068Z,4.5
2018-09-15T16:24:50.094Z,4.9
2018-09-15T16:26:50.396Z,4.9
2018-09-15T16:28:50.317Z,5.9
2018-09-15T16:30:50.414Z,4.3
2018-09-15T16:32:49.432Z,4.3
2018-09-15T16:34:49.920Z,5.8
2018-09-15T16:36:50.005Z,4.7
2018-09-15T16:38:50.013Z,4.9
2018-09-15T16:40:50.269Z,6.8
2018-09-15T16:42:49.427Z,6.8
2018-09-15T16:44:49.530Z,5.7
2018-09-15T16:46:49.714Z,5.7
2018-09-15T16:48:49.687Z,6.5
2018-09-15T16:50:49.820Z,6.5
2018-09-15T16:52:49.792Z,4.6
2018-09-15T16:54:49.772Z,3.9
2018-09-15T16:56:49.878Z,5.9
2018-09-15T16:58:50.190Z,6.2
2018-09-15T17:00:50.151Z,6.2
2018-09-15T17:02:50.199Z,5.0
2018-09-15T17:04:49.703Z,5.2
2018-09-15T17:06:49.834Z,4.8
2018-09-15T17:08:49.958Z,4.8
2018-09-15T17:10:49.978Z,3.6
2018-09-15T17:12:49.986Z,5.2
2018-09-15T17:14:50.136Z,2.6
2018-09-15T17:16:50.250Z,3.4
2018-09-15T17:18:49.548Z,4.6
2018-09-15T17:20:49.564Z,4.6
2018-09-15T17:22:49.616Z,3.3
2018-09-15T17:24:49.629Z,3.7
2018-09-15T17:26:49.874Z,3.7
2018-09-15T17:28:49.889Z,6.4
2018-09-15T17:30:49.955Z,6.4
2018-09-15T17:32:49.961Z,4.3
2018-09-15T17:34:50.281Z,5.4
2018-09-15T17:36:50.449Z,3.3
2018-09-15T17:38:49.575Z,8.4
2018-09-15T17:40:49.628Z,8.4
2018-09-15T17:42:49.665Z,4.2
2018-09-15T17:44:49.657Z,4.4
2018-09-15T17:46:49.847Z,5.5
2018-09-15T17:48:49.830Z,5.5
2018-09-15T17:50:49.846Z,3.5
2018-09-15T17:52:49.798Z,3.9
2018-09-15T17:54:49.989Z,5.2
2018-09-15T17:56:50.220Z,5.2
2018-09-15T17:58:50.241Z,3.5
2018-09-15T18:00:50.253Z,3.5
2018-09-15T18:02:50.182Z,3.6
2018-09-15T18:04:49.587Z,3.3
2018-09-15T18:06:49.724Z,5.6
2018-09-15T18:08:49.739Z,6.7
2018-09-15T18:10:49.819Z,6.7
2018-09-15T18:12:49.852Z,6.7
2018-09-15T18:14:49.931Z,5.2
2018-09-15T18:16:50.064Z,6.5
2018-09-15T18:18:50.135Z,6.5
2018-09-15T18:20:50.131Z,4.7
2018-09-15T18:22:49.440Z,4.7
2018-09-15T18:24:49.526Z,7.3
2018-09-15T18:26:49.730Z,5.1
2018-09-15T18:28:49.747Z,5.1
2018-09-15T18:30:49.792Z,6.1
2018-09-15T18:32:49.784Z,4.1
2018-09-15T18:34:50.118Z,5.6
2018-09-15T18:36:49.860Z,5.6
2018-09-15T18:38:50.074Z,5.8
2018-09-15T18:40:50.223Z,6.6
2018-09-15T18:42:50.304Z,6.3
2018-09-15T18:44:49.652Z,7.1
2018-09-15T18:46:49.940Z,7.1
2018-09-15T18:48:50.006Z,7.8
2018-09-15T18:50:50.179Z,4.0
2018-09-15T18:52:49.704Z,4.0
2018-09-15T18:54:49.731Z,4.9
2018-09-15T18:56:49.793Z,6.4
2018-09-15T18:58:50.014Z,6.4
2018-09-15T19:00:50.071Z,4.5
2018-09-15T19:02:50.131Z,4.9
2018-09-15T19:04:49.438Z,4.9
2018-09-15T19:06:49.480Z,4.1
2018-09-15T19:08:49.556Z,4.1
2018-09-15T19:10:49.548Z,5.5
2018-09-15T19:12:49.713Z,4.8
2018-09-15T19:14:49.803Z,4.8
2018-09-15T19:16:50.364Z,4.6
2018-09-15T19:18:50.430Z,5.7
2018-09-15T19:20:50.430Z,8.0
2018-09-15T19:22:49.569Z,5.7
2018-09-15T19:24:49.570Z,5.4
2018-09-15T19:26:49.758Z,0.0
2018-09-15T19:28:50.295Z,5.2
2018-09-15T19:30:50.278Z,6.0
2018-09-15T19:32:50.323Z,6.0
2018-09-15T19:34:50.293Z,4.2
2018-09-15T19:36:49.554Z,4.2
2018-09-15T19:38:49.557Z,4.7
2018-09-15T19:40:49.608Z,5.5
2018-09-15T19:42:49.686Z,5.5
2018-09-15T19:44:49.708Z,5.5
2018-09-15T19:46:49.739Z,5.5
2018-09-15T19:48:49.733Z,5.5
2018-09-15T19:50:49.881Z,5.5
2018-09-15T19:52:49.881Z,8.8
2018-09-15T19:54:49.931Z,4.8
2018-09-15T19:56:50.121Z,4.8
2018-09-15T19:58:50.104Z,6.4
2018-09-15T20:00:50.105Z,5.1
2018-09-15T20:02:50.023Z,5.1
2018-09-15T20:04:49.656Z,5.0
2018-09-15T20:06:50.217Z,5.0
2018-09-15T20:08:50.204Z,4.8
2018-09-15T20:10:50.149Z,5.3
2018-09-15T20:12:50.233Z,6.1
2018-09-15T20:14:49.450Z,8.5
2018-09-15T20:16:49.777Z,8.5
2018-09-15T20:18:49.808Z,7.8
2018-09-15T20:20:49.907Z,8.2
2018-09-15T20:22:50.006Z,5.0
2018-09-15T20:24:50.118Z,5.0
2018-09-15T20:26:49.833Z,7.2
2018-09-15T20:28:49.894Z,7.9
2018-09-15T20:30:49.894Z,7.9
2018-09-15T20:32:49.914Z,6.0
2018-09-15T20:34:49.864Z,6.2
2018-09-15T20:36:49.950Z,4.9
2018-09-15T20:38:49.947Z,4.4
2018-09-15T20:40:49.975Z,4.4
2018-09-15T20:42:50.096Z,5.4
2018-09-15T20:44:50.131Z,4.9
2018-09-15T20:46:50.407Z,5.0
2018-09-15T20:48:50.354Z,4.8
2018-09-15T20:50:49.505Z,4.8
2018-09-15T20:52:49.526Z,7.4
2018-09-15T20:54:49.636Z,5.8
2018-09-15T20:56:49.877Z,7.6
2018-09-15T20:58:49.921Z,5.5
2018-09-15T21:00:49.841Z,5.5
2018-09-15T21:02:49.882Z,5.3
2018-09-15T21:04:50.234Z,6.3
2018-09-15T21:06:50.413Z,6.3
2018-09-15T21:08:49.466Z,5.1
2018-09-15T21:10:49.576Z,5.1
2018-09-15T21:12:49.779Z,5.7
2018-09-15T21:14:49.810Z,5.5
2018-09-15T21:16:49.966Z,6.1
2018-09-15T21:18:49.994Z,6.6
2018-09-15T21:20:50.072Z,6.6
2018-09-15T21:22:50.148Z,5.3
2018-09-15T21:24:50.222Z,6.2
2018-09-15T21:26:50.402Z,6.2
2018-09-15T21:28:49.518Z,5.3
2018-09-15T21:30:49.493Z,5.3
2018-09-15T21:32:49.461Z,5.6
2018-09-15T21:34:49.974Z,5.4
2018-09-15T21:36:50.324Z,5.4
2018-09-15T21:38:49.677Z,5.8
2018-09-15T21:40:50.412Z,5.8
2018-09-15T21:42:49.672Z,5.5
2018-09-15T21:44:49.660Z,6.9
2018-09-15T21:46:49.817Z,5.4
2018-09-15T21:48:49.858Z,5.4
2018-09-15T21:50:50.016Z,5.5
2018-09-15T21:52:50.089Z,5.5
2018-09-15T21:54:50.129Z,6.6
2018-09-15T21:56:50.304Z,6.2
2018-09-15T21:58:50.373Z,7.8
2018-09-15T22:00:50.338Z,7.8
2018-09-15T22:02:50.336Z,6.8
2018-09-15T22:04:49.888Z,5.9
2018-09-15T22:06:50.138Z,6.1
2018-09-15T22:08:50.103Z,6.1
2018-09-15T22:10:50.100Z,5.6
2018-09-15T22:12:50.046Z,6.1
2018-09-15T22:14:50.060Z,5.7
2018-09-15T22:16:50.358Z,5.8
2018-09-15T22:18:49.432Z,5.8
2018-09-15T22:20:49.571Z,6.1
2018-09-15T22:22:49.712Z,5.8
2018-09-15T22:24:49.830Z,8.3
2018-09-15T22:26:50.007Z,8.3
2018-09-15T22:28:50.126Z,6.5
2018-09-15T22:30:50.114Z,7.3
2018-09-15T22:32:50.173Z,7.3
2018-09-15T22:34:49.570Z,5.5
2018-09-15T22:36:49.875Z,5.5
2018-09-15T22:38:49.862Z,6.9
2018-09-15T22:40:49.983Z,8.9
2018-09-15T22:42:49.955Z,8.0
2018-09-15T22:44:49.975Z,8.0
2018-09-15T22:46:50.258Z,6.5
2018-09-15T22:48:50.262Z,6.5
2018-09-15T22:50:50.364Z,6.6
2018-09-15T22:52:49.723Z,6.6
2018-09-15T22:54:49.697Z,6.6
2018-09-15T22:56:49.849Z,7.3
2018-09-15T22:58:49.827Z,7.3
2018-09-15T23:00:49.863Z,7.6
2018-09-15T23:02:49.894Z,7.8
2018-09-15T23:04:50.202Z,7.8
2018-09-15T23:06:50.433Z,7.8
2018-09-15T23:08:50.381Z,7.8
2018-09-15T23:10:49.506Z,7.8
2018-09-15T23:12:49.569Z,6.0
2018-09-15T23:14:49.714Z,6.2
2018-09-15T23:16:49.930Z,6.1
2018-09-15T23:18:49.955Z,6.1
2018-09-15T23:20:50.000Z,7.9
2018-09-15T23:22:50.059Z,6.1
2018-09-15T23:24:50.032Z,5.5
2018-09-15T23:26:50.246Z,5.5
2018-09-15T23:28:50.311Z,5.9
2018-09-15T23:30:49.476Z,6.9
2018-09-15T23:32:49.554Z,6.2
2018-09-15T23:34:50.071Z,5.9
2018-09-15T23:36:50.234Z,5.9
2018-09-15T23:38:50.335Z,6.5
2018-09-15T23:40:50.432Z,6.3
2018-09-15T23:42:50.418Z,6.6
2018-09-15T23:44:49.496Z,6.6
2018-09-15T23:46:49.625Z,6.5
2018-09-15T23:48:49.709Z,6.2
2018-09-15T23:50:49.772Z,6.5
2018-09-15T23:52:49.790Z,6.5
2018-09-15T23:54:50.076Z,7.1
2018-09-15T23:56:50.318Z,6.8
2018-09-15T23:58:50.363Z,6.8
